sensor_id;sensor_type;location;lat;lon;timestamp;P1;durP1;ratioP1;P2;durP2;ratioP2
64857;SDS011;51335;51.148;6.950;2023-12-28T00:00:24;6.78;;;2.38;;
64857;SDS011;51335;51.148;6.950;2023-12-28T00:00:55;4.47;;;1.90;;
64857;SDS011;51335;51.148;6.950;2023-12-28T00:01:25;5.47;;;2.20;;
64857;SDS011;51335;51.148;6.950;2023-12-28T00:01:55;5.38;;;2.08;;
64857;SDS011;51335;51.148;6.950;2023-12-28T00:02:25;4.22;;;1.80;;
64857;SDS011;51335;51.148;6.950;2023-12-28T00:02:56;6.47;;;2.30;;
64857;SDS011;51335;51.148;6.950;2023-12-28T00:03:26;6.90;;;1.73;;
64857;SDS011;51335;51.148;6.950;2023-12-28T00:03:56;5.40;;;2.20;;
64857;SDS011;51335;51.148;6.950;2023-12-28T00:04:26;3.25;;;1.90;;
64857;SDS011;51335;51.148;6.950;2023-12-28T00:04:57;4.60;;;2.00;;
64857;SDS011;51335;51.148;6.950;2023-12-28T00:05:27;4.30;;;2.00;;
64857;SDS011;51335;51.148;6.950;2023-12-28T00:05:57;3.42;;;1.60;;
64857;SDS011;51335;51.148;6.950;2023-12-28T00:06:27;3.42;;;1.70;;
64857;SDS011;51335;51.148;6.950;2023-12-28T00:06:58;2.92;;;1.90;;
64857;SDS011;51335;51.148;6.950;2023-12-28T00:07:28;3.72;;;2.00;;
64857;SDS011;51335;51.148;6.950;2023-12-28T00:07:58;4.15;;;1.90;;
64857;SDS011;51335;51.148;6.950;2023-12-28T00:08:28;4.28;;;1.98;;
64857;SDS011;51335;51.148;6.950;2023-12-28T00:08:59;3.03;;;1.73;;
64857;SDS011;51335;51.148;6.950;2023-12-28T00:09:29;4.05;;;1.80;;
64857;SDS011;51335;51.148;6.950;2023-12-28T00:09:59;4.28;;;1.80;;
64857;SDS011;51335;51.148;6.950;2023-12-28T00:10:30;4.90;;;1.65;;
64857;SDS011;51335;51.148;6.950;2023-12-28T00:11:00;3.33;;;1.85;;
64857;SDS011;51335;51.148;6.950;2023-12-28T00:11:30;6.20;;;1.90;;
64857;SDS011;51335;51.148;6.950;2023-12-28T00:12:00;4.57;;;1.90;;
64857;SDS011;51335;51.148;6.950;2023-12-28T00:12:31;3.13;;;1.83;;
64857;SDS011;51335;51.148;6.950;2023-12-28T00:13:01;4.65;;;1.95;;
64857;SDS011;51335;51.148;6.950;2023-12-28T00:13:31;3.75;;;1.90;;
64857;SDS011;51335;51.148;6.950;2023-12-28T00:14:02;3.90;;;1.92;;
64857;SDS011;51335;51.148;6.950;2023-12-28T00:14:32;4.72;;;1.85;;
64857;SDS011;51335;51.148;6.950;2023-12-28T00:15:02;3.22;;;1.52;;
64857;SDS011;51335;51.148;6.950;2023-12-28T00:15:33;3.28;;;1.77;;
64857;SDS011;51335;51.148;6.950;2023-12-28T00:16:03;2.88;;;1.65;;
64857;SDS011;51335;51.148;6.950;2023-12-28T00:16:33;3.83;;;1.52;;
64857;SDS011;51335;51.148;6.950;2023-12-28T00:17:04;3.67;;;1.42;;
64857;SDS011;51335;51.148;6.950;2023-12-28T00:17:34;3.28;;;1.70;;
64857;SDS011;51335;51.148;6.950;2023-12-28T00:18:04;2.65;;;1.50;;
64857;SDS011;51335;51.148;6.950;2023-12-28T00:18:34;2.45;;;1.55;;
64857;SDS011;51335;51.148;6.950;2023-12-28T00:19:05;4.00;;;1.83;;
64857;SDS011;51335;51.148;6.950;2023-12-28T00:19:35;2.70;;;1.67;;
64857;SDS011;51335;51.148;6.950;2023-12-28T00:20:05;3.03;;;1.25;;
64857;SDS011;51335;51.148;6.950;2023-12-28T00:20:36;4.72;;;1.98;;
64857;SDS011;51335;51.148;6.950;2023-12-28T00:21:06;4.40;;;1.67;;
64857;SDS011;51335;51.148;6.950;2023-12-28T00:21:36;2.33;;;1.58;;
64857;SDS011;51335;51.148;6.950;2023-12-28T00:22:07;3.65;;;1.30;;
64857;SDS011;51335;51.148;6.950;2023-12-28T00:22:37;4.03;;;1.80;;
64857;SDS011;51335;51.148;6.950;2023-12-28T00:23:07;4.40;;;1.50;;
64857;SDS011;51335;51.148;6.950;2023-12-28T00:23:37;5.70;;;1.70;;
64857;SDS011;51335;51.148;6.950;2023-12-28T00:24:08;2.22;;;1.35;;
64857;SDS011;51335;51.148;6.950;2023-12-28T00:24:38;3.85;;;1.50;;
64857;SDS011;51335;51.148;6.950;2023-12-28T00:25:08;2.50;;;1.38;;
64857;SDS011;51335;51.148;6.950;2023-12-28T00:25:38;3.67;;;1.50;;
64857;SDS011;51335;51.148;6.950;2023-12-28T00:26:09;3.38;;;1.40;;
64857;SDS011;51335;51.148;6.950;2023-12-28T00:26:39;3.38;;;1.58;;
64857;SDS011;51335;51.148;6.950;2023-12-28T00:27:09;3.30;;;1.50;;
64857;SDS011;51335;51.148;6.950;2023-12-28T00:27:39;2.83;;;1.45;;
64857;SDS011;51335;51.148;6.950;2023-12-28T00:28:10;5.47;;;1.55;;
64857;SDS011;51335;51.148;6.950;2023-12-28T00:28:40;2.08;;;1.25;;
64857;SDS011;51335;51.148;6.950;2023-12-28T00:29:10;2.53;;;1.48;;
64857;SDS011;51335;51.148;6.950;2023-12-28T00:29:40;3.63;;;1.90;;
64857;SDS011;51335;51.148;6.950;2023-12-28T00:30:11;2.97;;;1.60;;
64857;SDS011;51335;51.148;6.950;2023-12-28T00:30:41;3.90;;;1.60;;
64857;SDS011;51335;51.148;6.950;2023-12-28T00:31:12;2.67;;;1.50;;
64857;SDS011;51335;51.148;6.950;2023-12-28T00:31:42;2.78;;;1.40;;
64857;SDS011;51335;51.148;6.950;2023-12-28T00:32:12;3.05;;;1.30;;
64857;SDS011;51335;51.148;6.950;2023-12-28T00:32:43;4.10;;;1.55;;
64857;SDS011;51335;51.148;6.950;2023-12-28T00:33:13;3.17;;;1.55;;
64857;SDS011;51335;51.148;6.950;2023-12-28T00:33:44;3.72;;;1.60;;
64857;SDS011;51335;51.148;6.950;2023-12-28T00:34:14;6.15;;;1.40;;
64857;SDS011;51335;51.148;6.950;2023-12-28T00:34:44;3.95;;;1.50;;
64857;SDS011;51335;51.148;6.950;2023-12-28T00:35:14;2.80;;;1.35;;
64857;SDS011;51335;51.148;6.950;2023-12-28T00:35:45;4.45;;;1.52;;
64857;SDS011;51335;51.148;6.950;2023-12-28T00:36:15;3.85;;;1.60;;
64857;SDS011;51335;51.148;6.950;2023-12-28T00:36:45;4.57;;;1.85;;
64857;SDS011;51335;51.148;6.950;2023-12-28T00:37:16;3.75;;;1.42;;
64857;SDS011;51335;51.148;6.950;2023-12-28T00:37:46;3.90;;;1.63;;
64857;SDS011;51335;51.148;6.950;2023-12-28T00:38:16;2.95;;;1.67;;
64857;SDS011;51335;51.148;6.950;2023-12-28T00:38:46;2.80;;;1.52;;
64857;SDS011;51335;51.148;6.950;2023-12-28T00:39:17;3.28;;;1.48;;
64857;SDS011;51335;51.148;6.950;2023-12-28T00:39:47;2.65;;;1.30;;
64857;SDS011;51335;51.148;6.950;2023-12-28T00:40:17;5.32;;;1.50;;
64857;SDS011;51335;51.148;6.950;2023-12-28T00:40:47;3.75;;;1.55;;
64857;SDS011;51335;51.148;6.950;2023-12-28T00:41:18;3.88;;;1.42;;
64857;SDS011;51335;51.148;6.950;2023-12-28T00:41:48;4.60;;;1.40;;
64857;SDS011;51335;51.148;6.950;2023-12-28T00:42:18;2.53;;;1.33;;
64857;SDS011;51335;51.148;6.950;2023-12-28T00:42:48;1.80;;;1.40;;
64857;SDS011;51335;51.148;6.950;2023-12-28T00:43:19;3.13;;;1.48;;
64857;SDS011;51335;51.148;6.950;2023-12-28T00:43:49;2.30;;;1.40;;
64857;SDS011;51335;51.148;6.950;2023-12-28T00:44:19;2.38;;;1.40;;
64857;SDS011;51335;51.148;6.950;2023-12-28T00:44:49;3.08;;;1.65;;
64857;SDS011;51335;51.148;6.950;2023-12-28T00:45:20;2.88;;;1.48;;
64857;SDS011;51335;51.148;6.950;2023-12-28T00:45:50;3.25;;;1.70;;
64857;SDS011;51335;51.148;6.950;2023-12-28T00:46:20;3.65;;;1.50;;
64857;SDS011;51335;51.148;6.950;2023-12-28T00:46:50;4.30;;;1.75;;
64857;SDS011;51335;51.148;6.950;2023-12-28T00:47:21;4.88;;;1.70;;
64857;SDS011;51335;51.148;6.950;2023-12-28T00:47:51;3.50;;;1.45;;
64857;SDS011;51335;51.148;6.950;2023-12-28T00:48:21;2.78;;;1.60;;
64857;SDS011;51335;51.148;6.950;2023-12-28T00:48:52;2.83;;;1.60;;
64857;SDS011;51335;51.148;6.950;2023-12-28T00:49:22;3.92;;;1.60;;
64857;SDS011;51335;51.148;6.950;2023-12-28T00:49:52;2.33;;;1.40;;
64857;SDS011;51335;51.148;6.950;2023-12-28T00:50:22;2.30;;;1.55;;
64857;SDS011;51335;51.148;6.950;2023-12-28T00:50:53;1.83;;;1.50;;
64857;SDS011;51335;51.148;6.950;2023-12-28T00:51:23;3.13;;;1.50;;
64857;SDS011;51335;51.148;6.950;2023-12-28T00:51:53;2.75;;;1.65;;
64857;SDS011;51335;51.148;6.950;2023-12-28T00:52:23;2.17;;;1.50;;
64857;SDS011;51335;51.148;6.950;2023-12-28T00:52:54;3.97;;;1.60;;
64857;SDS011;51335;51.148;6.950;2023-12-28T00:53:25;2.60;;;1.42;;
64857;SDS011;51335;51.148;6.950;2023-12-28T00:53:56;2.95;;;1.40;;
64857;SDS011;51335;51.148;6.950;2023-12-28T00:54:26;3.63;;;1.70;;
64857;SDS011;51335;51.148;6.950;2023-12-28T00:54:56;3.75;;;1.80;;
64857;SDS011;51335;51.148;6.950;2023-12-28T00:55:26;3.58;;;1.60;;
64857;SDS011;51335;51.148;6.950;2023-12-28T00:55:57;3.17;;;1.58;;
64857;SDS011;51335;51.148;6.950;2023-12-28T00:56:27;2.63;;;1.50;;
64857;SDS011;51335;51.148;6.950;2023-12-28T00:56:57;2.33;;;1.50;;
64857;SDS011;51335;51.148;6.950;2023-12-28T00:57:27;3.67;;;1.50;;
64857;SDS011;51335;51.148;6.950;2023-12-28T00:57:58;3.50;;;1.50;;
64857;SDS011;51335;51.148;6.950;2023-12-28T00:58:28;3.40;;;1.40;;
64857;SDS011;51335;51.148;6.950;2023-12-28T00:58:58;1.67;;;1.25;;
64857;SDS011;51335;51.148;6.950;2023-12-28T00:59:28;3.35;;;1.50;;
64857;SDS011;51335;51.148;6.950;2023-12-28T00:59:59;3.78;;;1.70;;
64857;SDS011;51335;51.148;6.950;2023-12-28T01:00:29;2.72;;;1.70;;
64857;SDS011;51335;51.148;6.950;2023-12-28T01:01:00;2.50;;;1.30;;
64857;SDS011;51335;51.148;6.950;2023-12-28T01:01:30;4.97;;;1.67;;
64857;SDS011;51335;51.148;6.950;2023-12-28T01:02:00;2.28;;;1.60;;
64857;SDS011;51335;51.148;6.950;2023-12-28T01:02:30;3.97;;;1.80;;
64857;SDS011;51335;51.148;6.950;2023-12-28T01:03:01;2.85;;;1.45;;
64857;SDS011;51335;51.148;6.950;2023-12-28T01:03:31;2.95;;;1.55;;
64857;SDS011;51335;51.148;6.950;2023-12-28T01:04:01;5.50;;;1.60;;
64857;SDS011;51335;51.148;6.950;2023-12-28T01:04:31;3.50;;;1.80;;
64857;SDS011;51335;51.148;6.950;2023-12-28T01:05:02;5.13;;;1.60;;
64857;SDS011;51335;51.148;6.950;2023-12-28T01:05:32;3.45;;;1.55;;
64857;SDS011;51335;51.148;6.950;2023-12-28T01:06:02;4.22;;;1.58;;
64857;SDS011;51335;51.148;6.950;2023-12-28T01:06:34;2.85;;;1.60;;
64857;SDS011;51335;51.148;6.950;2023-12-28T01:07:04;1.92;;;1.33;;
64857;SDS011;51335;51.148;6.950;2023-12-28T01:07:35;4.05;;;1.60;;
64857;SDS011;51335;51.148;6.950;2023-12-28T01:08:05;3.05;;;1.48;;
64857;SDS011;51335;51.148;6.950;2023-12-28T01:08:35;2.70;;;1.52;;
64857;SDS011;51335;51.148;6.950;2023-12-28T01:09:06;3.13;;;1.90;;
64857;SDS011;51335;51.148;6.950;2023-12-28T01:09:36;2.85;;;1.60;;
64857;SDS011;51335;51.148;6.950;2023-12-28T01:10:06;2.63;;;1.48;;
64857;SDS011;51335;51.148;6.950;2023-12-28T01:10:37;3.30;;;1.50;;
64857;SDS011;51335;51.148;6.950;2023-12-28T01:11:07;2.72;;;1.52;;
64857;SDS011;51335;51.148;6.950;2023-12-28T01:11:37;2.58;;;1.38;;
64857;SDS011;51335;51.148;6.950;2023-12-28T01:12:08;2.42;;;1.40;;
64857;SDS011;51335;51.148;6.950;2023-12-28T01:12:38;2.67;;;1.50;;
64857;SDS011;51335;51.148;6.950;2023-12-28T01:13:08;2.22;;;1.42;;
64857;SDS011;51335;51.148;6.950;2023-12-28T01:13:38;2.90;;;1.30;;
64857;SDS011;51335;51.148;6.950;2023-12-28T01:14:09;2.35;;;1.50;;
64857;SDS011;51335;51.148;6.950;2023-12-28T01:14:39;3.22;;;1.60;;
64857;SDS011;51335;51.148;6.950;2023-12-28T01:15:09;2.58;;;1.40;;
64857;SDS011;51335;51.148;6.950;2023-12-28T01:15:40;2.08;;;1.30;;
64857;SDS011;51335;51.148;6.950;2023-12-28T01:16:12;2.58;;;1.20;;
64857;SDS011;51335;51.148;6.950;2023-12-28T01:16:43;1.70;;;1.40;;
64857;SDS011;51335;51.148;6.950;2023-12-28T01:17:13;2.85;;;1.40;;
64857;SDS011;51335;51.148;6.950;2023-12-28T01:17:43;3.70;;;1.48;;
64857;SDS011;51335;51.148;6.950;2023-12-28T01:18:13;1.85;;;1.30;;
64857;SDS011;51335;51.148;6.950;2023-12-28T01:18:44;2.55;;;1.45;;
64857;SDS011;51335;51.148;6.950;2023-12-28T01:19:14;2.83;;;1.50;;
64857;SDS011;51335;51.148;6.950;2023-12-28T01:19:44;3.15;;;1.35;;
64857;SDS011;51335;51.148;6.950;2023-12-28T01:20:14;3.50;;;1.27;;
64857;SDS011;51335;51.148;6.950;2023-12-28T01:20:45;2.35;;;1.27;;
64857;SDS011;51335;51.148;6.950;2023-12-28T01:21:15;2.42;;;1.48;;
64857;SDS011;51335;51.148;6.950;2023-12-28T01:21:46;3.78;;;1.38;;
64857;SDS011;51335;51.148;6.950;2023-12-28T01:22:16;1.80;;;1.35;;
64857;SDS011;51335;51.148;6.950;2023-12-28T01:22:46;2.45;;;1.30;;
64857;SDS011;51335;51.148;6.950;2023-12-28T01:23:16;1.50;;;1.30;;
64857;SDS011;51335;51.148;6.950;2023-12-28T01:23:47;2.03;;;1.33;;
64857;SDS011;51335;51.148;6.950;2023-12-28T01:24:17;2.80;;;1.20;;
64857;SDS011;51335;51.148;6.950;2023-12-28T01:24:47;2.75;;;1.30;;
64857;SDS011;51335;51.148;6.950;2023-12-28T01:25:17;2.28;;;1.23;;
64857;SDS011;51335;51.148;6.950;2023-12-28T01:25:48;1.90;;;1.27;;
64857;SDS011;51335;51.148;6.950;2023-12-28T01:26:18;5.82;;;1.60;;
64857;SDS011;51335;51.148;6.950;2023-12-28T01:26:48;2.08;;;1.27;;
64857;SDS011;51335;51.148;6.950;2023-12-28T01:27:18;3.03;;;1.20;;
64857;SDS011;51335;51.148;6.950;2023-12-28T01:27:49;3.45;;;1.40;;
64857;SDS011;51335;51.148;6.950;2023-12-28T01:28:19;2.13;;;1.30;;
64857;SDS011;51335;51.148;6.950;2023-12-28T01:28:49;2.28;;;1.20;;
64857;SDS011;51335;51.148;6.950;2023-12-28T01:29:19;3.28;;;1.40;;
64857;SDS011;51335;51.148;6.950;2023-12-28T01:29:50;3.42;;;1.50;;
64857;SDS011;51335;51.148;6.950;2023-12-28T01:30:20;2.63;;;1.50;;
64857;SDS011;51335;51.148;6.950;2023-12-28T01:30:50;2.00;;;1.30;;
64857;SDS011;51335;51.148;6.950;2023-12-28T01:31:20;2.13;;;1.30;;
64857;SDS011;51335;51.148;6.950;2023-12-28T01:31:51;4.57;;;1.40;;
64857;SDS011;51335;51.148;6.950;2023-12-28T01:32:21;1.88;;;1.25;;
64857;SDS011;51335;51.148;6.950;2023-12-28T01:32:51;1.67;;;1.20;;
64857;SDS011;51335;51.148;6.950;2023-12-28T01:33:21;2.10;;;1.27;;
64857;SDS011;51335;51.148;6.950;2023-12-28T01:33:52;2.55;;;1.25;;
64857;SDS011;51335;51.148;6.950;2023-12-28T01:34:22;2.22;;;1.38;;
64857;SDS011;51335;51.148;6.950;2023-12-28T01:34:52;3.88;;;1.20;;
64857;SDS011;51335;51.148;6.950;2023-12-28T01:35:22;1.73;;;1.10;;
64857;SDS011;51335;51.148;6.950;2023-12-28T01:35:53;2.58;;;1.30;;
64857;SDS011;51335;51.148;6.950;2023-12-28T01:36:23;2.65;;;1.40;;
64857;SDS011;51335;51.148;6.950;2023-12-28T01:36:53;2.17;;;1.30;;
64857;SDS011;51335;51.148;6.950;2023-12-28T01:37:24;2.28;;;1.27;;
64857;SDS011;51335;51.148;6.950;2023-12-28T01:37:54;2.10;;;1.23;;
64857;SDS011;51335;51.148;6.950;2023-12-28T01:38:25;1.77;;;1.30;;
64857;SDS011;51335;51.148;6.950;2023-12-28T01:38:55;2.17;;;1.42;;
64857;SDS011;51335;51.148;6.950;2023-12-28T01:39:25;2.20;;;1.45;;
64857;SDS011;51335;51.148;6.950;2023-12-28T01:39:55;6.50;;;1.50;;
64857;SDS011;51335;51.148;6.950;2023-12-28T01:40:26;3.45;;;1.52;;
64857;SDS011;51335;51.148;6.950;2023-12-28T01:40:56;1.92;;;1.20;;
64857;SDS011;51335;51.148;6.950;2023-12-28T01:41:26;2.28;;;1.40;;
64857;SDS011;51335;51.148;6.950;2023-12-28T01:41:56;2.17;;;1.40;;
64857;SDS011;51335;51.148;6.950;2023-12-28T01:42:27;2.50;;;1.10;;
64857;SDS011;51335;51.148;6.950;2023-12-28T01:42:57;2.83;;;1.20;;
64857;SDS011;51335;51.148;6.950;2023-12-28T01:43:27;1.52;;;1.23;;
64857;SDS011;51335;51.148;6.950;2023-12-28T01:43:58;3.70;;;1.30;;
64857;SDS011;51335;51.148;6.950;2023-12-28T01:44:28;2.13;;;1.33;;
64857;SDS011;51335;51.148;6.950;2023-12-28T01:44:58;2.80;;;1.35;;
64857;SDS011;51335;51.148;6.950;2023-12-28T01:45:28;1.80;;;1.23;;
64857;SDS011;51335;51.148;6.950;2023-12-28T01:45:59;1.75;;;1.25;;
64857;SDS011;51335;51.148;6.950;2023-12-28T01:46:29;1.98;;;1.23;;
64857;SDS011;51335;51.148;6.950;2023-12-28T01:46:59;2.00;;;1.45;;
64857;SDS011;51335;51.148;6.950;2023-12-28T01:47:30;2.35;;;1.50;;
64857;SDS011;51335;51.148;6.950;2023-12-28T01:48:01;1.50;;;1.20;;
64857;SDS011;51335;51.148;6.950;2023-12-28T01:48:31;1.35;;;1.15;;
64857;SDS011;51335;51.148;6.950;2023-12-28T01:49:03;1.88;;;1.17;;
64857;SDS011;51335;51.148;6.950;2023-12-28T01:49:34;2.28;;;1.40;;
64857;SDS011;51335;51.148;6.950;2023-12-28T01:50:06;1.95;;;1.20;;
64857;SDS011;51335;51.148;6.950;2023-12-28T01:50:37;2.33;;;1.30;;
64857;SDS011;51335;51.148;6.950;2023-12-28T01:51:07;1.73;;;1.25;;
64857;SDS011;51335;51.148;6.950;2023-12-28T01:51:38;1.33;;;1.20;;
64857;SDS011;51335;51.148;6.950;2023-12-28T01:52:08;2.50;;;1.30;;
64857;SDS011;51335;51.148;6.950;2023-12-28T01:52:38;1.73;;;1.25;;
64857;SDS011;51335;51.148;6.950;2023-12-28T01:53:09;2.53;;;1.45;;
64857;SDS011;51335;51.148;6.950;2023-12-28T01:53:40;5.90;;;1.40;;
64857;SDS011;51335;51.148;6.950;2023-12-28T01:54:11;2.17;;;1.23;;
64857;SDS011;51335;51.148;6.950;2023-12-28T01:54:42;1.88;;;1.30;;
64857;SDS011;51335;51.148;6.950;2023-12-28T01:55:12;1.75;;;1.30;;
64857;SDS011;51335;51.148;6.950;2023-12-28T01:55:43;2.60;;;1.38;;
64857;SDS011;51335;51.148;6.950;2023-12-28T01:56:13;3.70;;;1.20;;
64857;SDS011;51335;51.148;6.950;2023-12-28T01:56:45;1.55;;;1.23;;
64857;SDS011;51335;51.148;6.950;2023-12-28T01:57:15;1.85;;;1.10;;
64857;SDS011;51335;51.148;6.950;2023-12-28T01:57:47;3.22;;;1.33;;
64857;SDS011;51335;51.148;6.950;2023-12-28T01:58:18;2.90;;;1.17;;
64857;SDS011;51335;51.148;6.950;2023-12-28T01:58:49;1.88;;;1.30;;
64857;SDS011;51335;51.148;6.950;2023-12-28T01:59:20;2.80;;;1.38;;
64857;SDS011;51335;51.148;6.950;2023-12-28T01:59:51;3.25;;;1.45;;
64857;SDS011;51335;51.148;6.950;2023-12-28T02:00:22;2.05;;;1.27;;
64857;SDS011;51335;51.148;6.950;2023-12-28T02:00:55;2.97;;;1.30;;
64857;SDS011;51335;51.148;6.950;2023-12-28T02:01:25;2.35;;;1.42;;
64857;SDS011;51335;51.148;6.950;2023-12-28T02:01:56;1.88;;;1.20;;
64857;SDS011;51335;51.148;6.950;2023-12-28T02:02:27;1.73;;;1.35;;
64857;SDS011;51335;51.148;6.950;2023-12-28T02:02:57;2.50;;;1.20;;
64857;SDS011;51335;51.148;6.950;2023-12-28T02:03:29;2.25;;;1.13;;
64857;SDS011;51335;51.148;6.950;2023-12-28T02:03:59;2.20;;;1.17;;
64857;SDS011;51335;51.148;6.950;2023-12-28T02:04:29;2.03;;;1.20;;
64857;SDS011;51335;51.148;6.950;2023-12-28T02:05:00;2.28;;;1.25;;
64857;SDS011;51335;51.148;6.950;2023-12-28T02:05:31;1.95;;;1.20;;
64857;SDS011;51335;51.148;6.950;2023-12-28T02:06:02;2.38;;;1.25;;
64857;SDS011;51335;51.148;6.950;2023-12-28T02:06:34;4.65;;;1.35;;
64857;SDS011;51335;51.148;6.950;2023-12-28T02:07:04;1.80;;;1.20;;
64857;SDS011;51335;51.148;6.950;2023-12-28T02:07:35;2.60;;;1.23;;
64857;SDS011;51335;51.148;6.950;2023-12-28T02:08:06;2.95;;;1.42;;
64857;SDS011;51335;51.148;6.950;2023-12-28T02:08:37;2.05;;;1.33;;
64857;SDS011;51335;51.148;6.950;2023-12-28T02:09:07;1.65;;;1.10;;
64857;SDS011;51335;51.148;6.950;2023-12-28T02:09:37;1.80;;;1.20;;
64857;SDS011;51335;51.148;6.950;2023-12-28T02:10:07;2.80;;;1.45;;
64857;SDS011;51335;51.148;6.950;2023-12-28T02:10:38;3.40;;;1.35;;
64857;SDS011;51335;51.148;6.950;2023-12-28T02:11:09;2.08;;;1.30;;
64857;SDS011;51335;51.148;6.950;2023-12-28T02:11:39;2.08;;;1.30;;
64857;SDS011;51335;51.148;6.950;2023-12-28T02:12:09;2.58;;;1.15;;
64857;SDS011;51335;51.148;6.950;2023-12-28T02:12:40;1.95;;;1.20;;
64857;SDS011;51335;51.148;6.950;2023-12-28T02:13:11;2.38;;;1.10;;
64857;SDS011;51335;51.148;6.950;2023-12-28T02:13:41;1.98;;;1.30;;
64857;SDS011;51335;51.148;6.950;2023-12-28T02:14:11;2.95;;;1.40;;
64857;SDS011;51335;51.148;6.950;2023-12-28T02:14:42;2.85;;;1.20;;
64857;SDS011;51335;51.148;6.950;2023-12-28T02:15:12;5.63;;;1.38;;
64857;SDS011;51335;51.148;6.950;2023-12-28T02:15:43;3.10;;;1.35;;
64857;SDS011;51335;51.148;6.950;2023-12-28T02:17:04;2.10;;;1.35;;
64857;SDS011;51335;51.148;6.950;2023-12-28T02:17:45;1.70;;;1.20;;
64857;SDS011;51335;51.148;6.950;2023-12-28T02:18:21;1.65;;;1.20;;
64857;SDS011;51335;51.148;6.950;2023-12-28T02:18:56;3.78;;;1.25;;
64857;SDS011;51335;51.148;6.950;2023-12-28T02:20:12;2.17;;;1.20;;
64857;SDS011;51335;51.148;6.950;2023-12-28T02:20:45;2.08;;;1.20;;
64857;SDS011;51335;51.148;6.950;2023-12-28T02:21:16;2.45;;;1.20;;
64857;SDS011;51335;51.148;6.950;2023-12-28T02:21:47;2.03;;;1.45;;
64857;SDS011;51335;51.148;6.950;2023-12-28T02:22:17;2.63;;;1.42;;
64857;SDS011;51335;51.148;6.950;2023-12-28T02:22:48;1.80;;;1.30;;
64857;SDS011;51335;51.148;6.950;2023-12-28T02:23:19;3.63;;;1.30;;
64857;SDS011;51335;51.148;6.950;2023-12-28T02:23:49;2.63;;;1.40;;
64857;SDS011;51335;51.148;6.950;2023-12-28T02:24:20;2.38;;;1.40;;
64857;SDS011;51335;51.148;6.950;2023-12-28T02:25:01;2.28;;;1.30;;
64857;SDS011;51335;51.148;6.950;2023-12-28T02:25:34;2.28;;;1.40;;
64857;SDS011;51335;51.148;6.950;2023-12-28T02:26:04;3.22;;;1.50;;
64857;SDS011;51335;51.148;6.950;2023-12-28T02:26:35;2.97;;;1.40;;
64857;SDS011;51335;51.148;6.950;2023-12-28T02:27:05;3.15;;;1.58;;
64857;SDS011;51335;51.148;6.950;2023-12-28T02:27:36;2.50;;;1.60;;
64857;SDS011;51335;51.148;6.950;2023-12-28T02:28:17;1.92;;;1.38;;
64857;SDS011;51335;51.148;6.950;2023-12-28T02:28:48;2.30;;;1.40;;
64857;SDS011;51335;51.148;6.950;2023-12-28T02:29:19;3.22;;;1.50;;
64857;SDS011;51335;51.148;6.950;2023-12-28T02:29:49;3.20;;;1.52;;
64857;SDS011;51335;51.148;6.950;2023-12-28T02:30:20;2.63;;;1.50;;
64857;SDS011;51335;51.148;6.950;2023-12-28T02:30:52;2.92;;;1.50;;
64857;SDS011;51335;51.148;6.950;2023-12-28T02:31:28;2.75;;;1.55;;
64857;SDS011;51335;51.148;6.950;2023-12-28T02:32:05;2.38;;;1.50;;
64857;SDS011;51335;51.148;6.950;2023-12-28T02:32:44;2.15;;;1.42;;
64857;SDS011;51335;51.148;6.950;2023-12-28T02:33:22;1.67;;;1.38;;
64857;SDS011;51335;51.148;6.950;2023-12-28T02:34:16;1.92;;;1.30;;
64857;SDS011;51335;51.148;6.950;2023-12-28T02:34:53;3.30;;;1.50;;
64857;SDS011;51335;51.148;6.950;2023-12-28T02:36:11;3.53;;;1.42;;
64857;SDS011;51335;51.148;6.950;2023-12-28T02:36:44;2.42;;;1.35;;
64857;SDS011;51335;51.148;6.950;2023-12-28T02:37:17;2.95;;;1.48;;
64857;SDS011;51335;51.148;6.950;2023-12-28T02:37:50;2.63;;;1.40;;
64857;SDS011;51335;51.148;6.950;2023-12-28T02:38:23;2.65;;;1.40;;
64857;SDS011;51335;51.148;6.950;2023-12-28T02:38:55;3.58;;;2.00;;
64857;SDS011;51335;51.148;6.950;2023-12-28T02:39:28;2.47;;;1.40;;
64857;SDS011;51335;51.148;6.950;2023-12-28T02:39:59;3.05;;;1.25;;
64857;SDS011;51335;51.148;6.950;2023-12-28T02:40:31;2.75;;;1.55;;
64857;SDS011;51335;51.148;6.950;2023-12-28T02:41:08;3.80;;;1.42;;
64857;SDS011;51335;51.148;6.950;2023-12-28T02:41:39;5.35;;;1.50;;
64857;SDS011;51335;51.148;6.950;2023-12-28T02:42:10;3.75;;;1.60;;
64857;SDS011;51335;51.148;6.950;2023-12-28T02:42:41;4.30;;;1.95;;
64857;SDS011;51335;51.148;6.950;2023-12-28T02:43:11;2.60;;;1.55;;
64857;SDS011;51335;51.148;6.950;2023-12-28T02:43:42;3.13;;;1.30;;
64857;SDS011;51335;51.148;6.950;2023-12-28T02:44:12;3.22;;;1.40;;
64857;SDS011;51335;51.148;6.950;2023-12-28T02:44:43;2.25;;;1.50;;
64857;SDS011;51335;51.148;6.950;2023-12-28T02:45:13;3.25;;;1.60;;
64857;SDS011;51335;51.148;6.950;2023-12-28T02:45:43;2.65;;;1.60;;
64857;SDS011;51335;51.148;6.950;2023-12-28T02:46:14;3.10;;;1.50;;
64857;SDS011;51335;51.148;6.950;2023-12-28T02:46:44;2.33;;;1.30;;
64857;SDS011;51335;51.148;6.950;2023-12-28T02:47:14;2.95;;;1.40;;
64857;SDS011;51335;51.148;6.950;2023-12-28T02:47:44;5.72;;;1.45;;
64857;SDS011;51335;51.148;6.950;2023-12-28T02:48:15;3.55;;;1.40;;
64857;SDS011;51335;51.148;6.950;2023-12-28T02:48:45;2.50;;;1.40;;
64857;SDS011;51335;51.148;6.950;2023-12-28T02:49:16;3.80;;;1.70;;
64857;SDS011;51335;51.148;6.950;2023-12-28T02:49:46;2.83;;;1.50;;
64857;SDS011;51335;51.148;6.950;2023-12-28T02:50:16;2.78;;;1.40;;
64857;SDS011;51335;51.148;6.950;2023-12-28T02:50:46;2.28;;;1.75;;
64857;SDS011;51335;51.148;6.950;2023-12-28T02:51:17;3.05;;;1.58;;
64857;SDS011;51335;51.148;6.950;2023-12-28T02:51:47;2.25;;;1.30;;
64857;SDS011;51335;51.148;6.950;2023-12-28T02:52:17;4.85;;;1.58;;
64857;SDS011;51335;51.148;6.950;2023-12-28T02:52:47;2.88;;;1.60;;
64857;SDS011;51335;51.148;6.950;2023-12-28T02:53:18;3.70;;;1.35;;
64857;SDS011;51335;51.148;6.950;2023-12-28T02:53:48;2.75;;;1.52;;
64857;SDS011;51335;51.148;6.950;2023-12-28T02:54:18;5.10;;;1.55;;
64857;SDS011;51335;51.148;6.950;2023-12-28T02:54:48;2.05;;;1.50;;
64857;SDS011;51335;51.148;6.950;2023-12-28T02:55:19;3.92;;;1.45;;
64857;SDS011;51335;51.148;6.950;2023-12-28T02:55:49;5.60;;;1.60;;
64857;SDS011;51335;51.148;6.950;2023-12-28T02:56:19;4.30;;;1.88;;
64857;SDS011;51335;51.148;6.950;2023-12-28T02:56:49;4.55;;;1.73;;
64857;SDS011;51335;51.148;6.950;2023-12-28T02:57:20;2.42;;;1.50;;
64857;SDS011;51335;51.148;6.950;2023-12-28T02:57:50;2.08;;;1.38;;
64857;SDS011;51335;51.148;6.950;2023-12-28T02:58:21;4.75;;;1.63;;
64857;SDS011;51335;51.148;6.950;2023-12-28T02:58:52;2.88;;;1.63;;
64857;SDS011;51335;51.148;6.950;2023-12-28T02:59:22;2.55;;;1.25;;
64857;SDS011;51335;51.148;6.950;2023-12-28T02:59:52;2.47;;;1.33;;
64857;SDS011;51335;51.148;6.950;2023-12-28T03:00:22;3.58;;;1.77;;
64857;SDS011;51335;51.148;6.950;2023-12-28T03:00:53;1.90;;;1.20;;
64857;SDS011;51335;51.148;6.950;2023-12-28T03:01:23;2.15;;;1.30;;
64857;SDS011;51335;51.148;6.950;2023-12-28T03:01:53;1.70;;;1.35;;
64857;SDS011;51335;51.148;6.950;2023-12-28T03:02:23;2.67;;;1.40;;
64857;SDS011;51335;51.148;6.950;2023-12-28T03:02:54;4.32;;;1.40;;
64857;SDS011;51335;51.148;6.950;2023-12-28T03:03:24;2.15;;;1.42;;
64857;SDS011;51335;51.148;6.950;2023-12-28T03:03:54;2.58;;;1.50;;
64857;SDS011;51335;51.148;6.950;2023-12-28T03:04:24;2.25;;;1.55;;
64857;SDS011;51335;51.148;6.950;2023-12-28T03:04:55;4.35;;;1.45;;
64857;SDS011;51335;51.148;6.950;2023-12-28T03:05:25;2.67;;;1.40;;
64857;SDS011;51335;51.148;6.950;2023-12-28T03:05:55;2.95;;;1.50;;
64857;SDS011;51335;51.148;6.950;2023-12-28T03:06:25;2.83;;;1.30;;
64857;SDS011;51335;51.148;6.950;2023-12-28T03:06:56;1.92;;;1.30;;
64857;SDS011;51335;51.148;6.950;2023-12-28T03:07:26;2.10;;;1.38;;
64857;SDS011;51335;51.148;6.950;2023-12-28T03:07:56;1.55;;;1.20;;